Terminal Aerodrome Forecast
Issued by NWS

Home | Current Version | Previous Version | Text Only | Print | Product List | Glossary On
Versions: 1 2 3 4 5 6 7 8 9 10 11 12
000
FTUS45 KABQ 210500
TAFAEG
TAF
KAEG 210539Z 2106/2206 30006KT P6SM FEW120
     FM211900 VRB06KT P6SM FEW110 SCT200
     FM220400 25008KT P6SM SCT080 BKN150=

USA.gov is the U.S. government's official web portal to all federal, state and local government web resources and services.